sensor_id;sensor_type;location;lat;lon;timestamp;temperature;humidity
31991;DHT22;18508;49.386;8.370;2022-08-21T00:00:30;17.90;93.70
31991;DHT22;18508;49.386;8.370;2022-08-21T00:03:01;17.90;92.60
31991;DHT22;18508;49.386;8.370;2022-08-21T00:05:31;17.90;92.10
31991;DHT22;18508;49.386;8.370;2022-08-21T00:08:00;17.80;91.20
31991;DHT22;18508;49.386;8.370;2022-08-21T00:10:28;17.90;90.60
31991;DHT22;18508;49.386;8.370;2022-08-21T00:12:56;17.90;90.20
31991;DHT22;18508;49.386;8.370;2022-08-21T00:15:27;17.80;89.80
31991;DHT22;18508;49.386;8.370;2022-08-21T00:17:57;17.80;89.30
31991;DHT22;18508;49.386;8.370;2022-08-21T00:20:26;17.80;88.00
31991;DHT22;18508;49.386;8.370;2022-08-21T00:22:54;17.80;88.70
31991;DHT22;18508;49.386;8.370;2022-08-21T00:25:24;17.80;90.50
31991;DHT22;18508;49.386;8.370;2022-08-21T00:27:52;17.80;91.20
31991;DHT22;18508;49.386;8.370;2022-08-21T00:30:22;17.70;91.40
31991;DHT22;18508;49.386;8.370;2022-08-21T00:32:51;17.70;93.50
31991;DHT22;18508;49.386;8.370;2022-08-21T00:35:26;17.70;99.90
31991;DHT22;18508;49.386;8.370;2022-08-21T00:37:54;17.60;96.80
31991;DHT22;18508;49.386;8.370;2022-08-21T00:40:33;17.50;99.40
31991;DHT22;18508;49.386;8.370;2022-08-21T00:43:02;17.50;99.90
31991;DHT22;18508;49.386;8.370;2022-08-21T00:45:32;17.50;99.90
31991;DHT22;18508;49.386;8.370;2022-08-21T00:48:00;17.40;99.90
31991;DHT22;18508;49.386;8.370;2022-08-21T00:50:33;17.30;99.90
31991;DHT22;18508;49.386;8.370;2022-08-21T00:53:03;17.30;99.90
31991;DHT22;18508;49.386;8.370;2022-08-21T00:55:34;17.20;99.90
31991;DHT22;18508;49.386;8.370;2022-08-21T00:58:07;17.20;99.90
31991;DHT22;18508;49.386;8.370;2022-08-21T01:00:38;17.20;99.90
31991;DHT22;18508;49.386;8.370;2022-08-21T01:03:09;17.10;99.90
31991;DHT22;18508;49.386;8.370;2022-08-21T01:05:41;17.20;99.90
31991;DHT22;18508;49.386;8.370;2022-08-21T01:08:10;17.20;99.90
31991;DHT22;18508;49.386;8.370;2022-08-21T01:10:38;17.10;99.90
31991;DHT22;18508;49.386;8.370;2022-08-21T01:13:09;17.20;99.90
31991;DHT22;18508;49.386;8.370;2022-08-21T01:15:40;17.10;99.90
31991;DHT22;18508;49.386;8.370;2022-08-21T01:18:11;17.20;99.90
31991;DHT22;18508;49.386;8.370;2022-08-21T01:20:44;17.10;99.90
31991;DHT22;18508;49.386;8.370;2022-08-21T01:23:17;17.10;99.90
31991;DHT22;18508;49.386;8.370;2022-08-21T01:25:45;17.10;99.90
31991;DHT22;18508;49.386;8.370;2022-08-21T01:28:14;17.10;99.90
31991;DHT22;18508;49.386;8.370;2022-08-21T01:30:43;17.10;99.90
31991;DHT22;18508;49.386;8.370;2022-08-21T01:33:11;17.00;99.90
31991;DHT22;18508;49.386;8.370;2022-08-21T01:35:39;17.00;99.90
31991;DHT22;18508;49.386;8.370;2022-08-21T01:38:08;16.90;99.90
31991;DHT22;18508;49.386;8.370;2022-08-21T01:40:37;16.90;99.90
31991;DHT22;18508;49.386;8.370;2022-08-21T01:43:05;16.90;99.90
31991;DHT22;18508;49.386;8.370;2022-08-21T01:45:33;16.80;99.90
31991;DHT22;18508;49.386;8.370;2022-08-21T01:48:01;16.80;99.90
31991;DHT22;18508;49.386;8.370;2022-08-21T01:50:30;16.70;99.90
31991;DHT22;18508;49.386;8.370;2022-08-21T01:52:58;16.70;99.90
31991;DHT22;18508;49.386;8.370;2022-08-21T01:55:26;16.70;99.90
31991;DHT22;18508;49.386;8.370;2022-08-21T01:57:57;16.70;99.90
31991;DHT22;18508;49.386;8.370;2022-08-21T02:00:25;16.60;99.90
31991;DHT22;18508;49.386;8.370;2022-08-21T02:02:53;16.50;99.90
31991;DHT22;18508;49.386;8.370;2022-08-21T02:05:22;16.30;99.90
31991;DHT22;18508;49.386;8.370;2022-08-21T02:07:54;16.10;99.90
31991;DHT22;18508;49.386;8.370;2022-08-21T02:10:25;16.00;99.90
31991;DHT22;18508;49.386;8.370;2022-08-21T02:12:56;16.10;99.90
31991;DHT22;18508;49.386;8.370;2022-08-21T02:15:25;15.90;99.90
31991;DHT22;18508;49.386;8.370;2022-08-21T02:17:56;15.80;99.90
31991;DHT22;18508;49.386;8.370;2022-08-21T02:20:26;15.70;99.90
31991;DHT22;18508;49.386;8.370;2022-08-21T02:22:55;15.60;99.90
31991;DHT22;18508;49.386;8.370;2022-08-21T02:25:24;15.50;99.90
31991;DHT22;18508;49.386;8.370;2022-08-21T02:27:53;15.40;99.90
31991;DHT22;18508;49.386;8.370;2022-08-21T02:30:26;15.40;99.90
31991;DHT22;18508;49.386;8.370;2022-08-21T02:32:54;15.40;99.90
31991;DHT22;18508;49.386;8.370;2022-08-21T02:35:23;14.90;99.90
31991;DHT22;18508;49.386;8.370;2022-08-21T02:37:55;15.30;99.90
31991;DHT22;18508;49.386;8.370;2022-08-21T02:40:26;15.50;99.90
31991;DHT22;18508;49.386;8.370;2022-08-21T02:42:55;15.00;99.90
31991;DHT22;18508;49.386;8.370;2022-08-21T02:45:24;15.00;99.90
31991;DHT22;18508;49.386;8.370;2022-08-21T02:47:56;15.30;99.90
31991;DHT22;18508;49.386;8.370;2022-08-21T02:50:27;15.00;99.90
31991;DHT22;18508;49.386;8.370;2022-08-21T02:52:56;15.10;99.90
31991;DHT22;18508;49.386;8.370;2022-08-21T02:55:26;15.00;99.90
31991;DHT22;18508;49.386;8.370;2022-08-21T03:00:27;14.80;99.90
31991;DHT22;18508;49.386;8.370;2022-08-21T03:02:55;14.10;99.90
31991;DHT22;18508;49.386;8.370;2022-08-21T03:05:25;14.90;99.90
31991;DHT22;18508;49.386;8.370;2022-08-21T03:07:54;15.00;99.90
31991;DHT22;18508;49.386;8.370;2022-08-21T03:10:22;14.70;99.90
31991;DHT22;18508;49.386;8.370;2022-08-21T03:12:51;14.80;99.90
31991;DHT22;18508;49.386;8.370;2022-08-21T03:15:23;14.90;99.90
31991;DHT22;18508;49.386;8.370;2022-08-21T03:17:52;14.50;99.90
31991;DHT22;18508;49.386;8.370;2022-08-21T03:20:23;14.70;99.90
31991;DHT22;18508;49.386;8.370;2022-08-21T03:25:20;14.30;99.90
31991;DHT22;18508;49.386;8.370;2022-08-21T03:28:10;14.50;99.90
31991;DHT22;18508;49.386;8.370;2022-08-21T03:30:41;14.40;99.90
31991;DHT22;18508;49.386;8.370;2022-08-21T03:33:10;14.40;99.90
31991;DHT22;18508;49.386;8.370;2022-08-21T03:38:10;14.40;99.90
31991;DHT22;18508;49.386;8.370;2022-08-21T03:43:07;14.50;99.90
31991;DHT22;18508;49.386;8.370;2022-08-21T03:45:36;14.60;99.90
31991;DHT22;18508;49.386;8.370;2022-08-21T03:48:10;14.70;99.90
31991;DHT22;18508;49.386;8.370;2022-08-21T03:50:42;14.40;99.90
31991;DHT22;18508;49.386;8.370;2022-08-21T03:53:11;14.40;99.90
31991;DHT22;18508;49.386;8.370;2022-08-21T03:55:46;14.50;99.90
31991;DHT22;18508;49.386;8.370;2022-08-21T04:00:44;14.20;99.90
31991;DHT22;18508;49.386;8.370;2022-08-21T04:03:14;14.20;99.90
31991;DHT22;18508;49.386;8.370;2022-08-21T04:05:43;17.00;99.90
31991;DHT22;18508;49.386;8.370;2022-08-21T04:08:15;14.20;99.90
31991;DHT22;18508;49.386;8.370;2022-08-21T04:10:48;14.30;99.90
31991;DHT22;18508;49.386;8.370;2022-08-21T04:13:19;14.40;99.90
31991;DHT22;18508;49.386;8.370;2022-08-21T04:15:51;14.40;99.90
31991;DHT22;18508;49.386;8.370;2022-08-21T04:18:24;14.10;99.90
31991;DHT22;18508;49.386;8.370;2022-08-21T04:20:54;14.60;99.90
31991;DHT22;18508;49.386;8.370;2022-08-21T04:23:24;14.50;99.90
31991;DHT22;18508;49.386;8.370;2022-08-21T04:25:53;14.60;99.90
31991;DHT22;18508;49.386;8.370;2022-08-21T04:28:23;14.40;99.90
31991;DHT22;18508;49.386;8.370;2022-08-21T04:30:56;14.00;99.90
31991;DHT22;18508;49.386;8.370;2022-08-21T04:33:26;14.20;99.90
31991;DHT22;18508;49.386;8.370;2022-08-21T04:35:54;14.30;99.90
31991;DHT22;18508;49.386;8.370;2022-08-21T04:38:23;14.20;99.90
31991;DHT22;18508;49.386;8.370;2022-08-21T04:40:52;14.10;99.90
31991;DHT22;18508;49.386;8.370;2022-08-21T04:43:20;14.00;99.90
31991;DHT22;18508;49.386;8.370;2022-08-21T04:45:51;14.10;99.90
31991;DHT22;18508;49.386;8.370;2022-08-21T04:48:21;14.00;99.90
31991;DHT22;18508;49.386;8.370;2022-08-21T04:50:54;13.80;99.90
31991;DHT22;18508;49.386;8.370;2022-08-21T04:53:26;13.90;99.90
31991;DHT22;18508;49.386;8.370;2022-08-21T04:55:59;13.80;99.90
31991;DHT22;18508;49.386;8.370;2022-08-21T04:58:29;13.80;99.90
31991;DHT22;18508;49.386;8.370;2022-08-21T05:01:00;13.90;99.90
31991;DHT22;18508;49.386;8.370;2022-08-21T05:03:31;13.80;99.90
31991;DHT22;18508;49.386;8.370;2022-08-21T05:06:04;14.00;99.90
31991;DHT22;18508;49.386;8.370;2022-08-21T05:08:49;14.10;99.90
31991;DHT22;18508;49.386;8.370;2022-08-21T05:14:00;14.10;99.90
31991;DHT22;18508;49.386;8.370;2022-08-21T05:16:28;13.90;99.90
31991;DHT22;18508;49.386;8.370;2022-08-21T05:24:02;14.70;99.90
31991;DHT22;18508;49.386;8.370;2022-08-21T05:26:30;14.30;99.90
31991;DHT22;18508;49.386;8.370;2022-08-21T05:29:05;14.60;99.90
31991;DHT22;18508;49.386;8.370;2022-08-21T05:31:38;14.20;99.90
31991;DHT22;18508;49.386;8.370;2022-08-21T05:39:07;14.90;99.90
31991;DHT22;18508;49.386;8.370;2022-08-21T05:41:35;14.80;99.90
31991;DHT22;18508;49.386;8.370;2022-08-21T05:46:36;14.90;99.90
31991;DHT22;18508;49.386;8.370;2022-08-21T05:49:04;15.10;99.90
31991;DHT22;18508;49.386;8.370;2022-08-21T05:51:32;15.20;99.90
31991;DHT22;18508;49.386;8.370;2022-08-21T05:54:02;15.00;99.90
31991;DHT22;18508;49.386;8.370;2022-08-21T05:56:33;15.40;99.90
31991;DHT22;18508;49.386;8.370;2022-08-21T05:59:03;15.50;99.90
31991;DHT22;18508;49.386;8.370;2022-08-21T06:01:34;15.90;99.90
31991;DHT22;18508;49.386;8.370;2022-08-21T06:04:03;15.70;99.90
31991;DHT22;18508;49.386;8.370;2022-08-21T06:06:34;16.10;99.90
31991;DHT22;18508;49.386;8.370;2022-08-21T06:09:05;15.90;99.90
31991;DHT22;18508;49.386;8.370;2022-08-21T06:11:34;16.10;99.90
31991;DHT22;18508;49.386;8.370;2022-08-21T06:14:03;16.00;99.90
31991;DHT22;18508;49.386;8.370;2022-08-21T06:16:33;16.30;99.90
31991;DHT22;18508;49.386;8.370;2022-08-21T06:19:01;16.40;99.90
31991;DHT22;18508;49.386;8.370;2022-08-21T06:21:29;16.60;99.90
31991;DHT22;18508;49.386;8.370;2022-08-21T06:23:58;16.70;99.90
31991;DHT22;18508;49.386;8.370;2022-08-21T06:26:26;16.80;99.90
31991;DHT22;18508;49.386;8.370;2022-08-21T06:28:56;16.90;99.90
31991;DHT22;18508;49.386;8.370;2022-08-21T06:31:27;17.00;99.90
31991;DHT22;18508;49.386;8.370;2022-08-21T06:33:56;17.20;99.90
31991;DHT22;18508;49.386;8.370;2022-08-21T06:36:25;17.40;99.90
31991;DHT22;18508;49.386;8.370;2022-08-21T06:38:54;17.50;99.90
31991;DHT22;18508;49.386;8.370;2022-08-21T06:41:26;17.80;99.90
31991;DHT22;18508;49.386;8.370;2022-08-21T06:43:58;17.80;99.90
31991;DHT22;18508;49.386;8.370;2022-08-21T06:46:28;18.00;99.90
31991;DHT22;18508;49.386;8.370;2022-08-21T06:51:28;18.20;99.90
31991;DHT22;18508;49.386;8.370;2022-08-21T06:53:56;19.00;96.30
31991;DHT22;18508;49.386;8.370;2022-08-21T06:56:25;19.00;94.20
31991;DHT22;18508;49.386;8.370;2022-08-21T06:58:58;18.70;86.10
31991;DHT22;18508;49.386;8.370;2022-08-21T07:01:29;18.90;78.80
31991;DHT22;18508;49.386;8.370;2022-08-21T07:04:01;19.00;84.60
31991;DHT22;18508;49.386;8.370;2022-08-21T07:09:05;19.40;76.10
31991;DHT22;18508;49.386;8.370;2022-08-21T07:11:37;19.30;59.20
31991;DHT22;18508;49.386;8.370;2022-08-21T07:14:18;19.30;52.70
31991;DHT22;18508;49.386;8.370;2022-08-21T07:16:47;19.60;61.20
31991;DHT22;18508;49.386;8.370;2022-08-21T07:19:18;19.60;49.20
31991;DHT22;18508;49.386;8.370;2022-08-21T07:21:55;19.90;45.60
31991;DHT22;18508;49.386;8.370;2022-08-21T07:24:29;19.90;41.00
31991;DHT22;18508;49.386;8.370;2022-08-21T07:27:00;19.50;52.50
31991;DHT22;18508;49.386;8.370;2022-08-21T07:29:37;19.90;52.10
31991;DHT22;18508;49.386;8.370;2022-08-21T07:32:09;20.00;45.20
31991;DHT22;18508;49.386;8.370;2022-08-21T07:34:57;20.00;43.70
31991;DHT22;18508;49.386;8.370;2022-08-21T07:37:29;20.20;37.50
31991;DHT22;18508;49.386;8.370;2022-08-21T07:39:58;20.50;25.30
31991;DHT22;18508;49.386;8.370;2022-08-21T07:42:29;21.40;30.40
31991;DHT22;18508;49.386;8.370;2022-08-21T07:45:03;20.70;20.60
31991;DHT22;18508;49.386;8.370;2022-08-21T07:47:35;20.70;20.90
31991;DHT22;18508;49.386;8.370;2022-08-21T07:50:09;20.80;22.70
31991;DHT22;18508;49.386;8.370;2022-08-21T07:52:40;20.90;22.30
31991;DHT22;18508;49.386;8.370;2022-08-21T07:55:14;21.00;20.60
31991;DHT22;18508;49.386;8.370;2022-08-21T07:57:43;20.70;30.40
31991;DHT22;18508;49.386;8.370;2022-08-21T08:00:18;21.80;29.50
31991;DHT22;18508;49.386;8.370;2022-08-21T08:02:50;21.20;18.70
31991;DHT22;18508;49.386;8.370;2022-08-21T08:05:31;21.30;18.80
31991;DHT22;18508;49.386;8.370;2022-08-21T08:07:59;21.60;29.70
31991;DHT22;18508;49.386;8.370;2022-08-21T08:10:27;21.40;19.40
31991;DHT22;18508;49.386;8.370;2022-08-21T08:12:56;21.60;17.10
31991;DHT22;18508;49.386;8.370;2022-08-21T08:15:27;21.80;13.60
31991;DHT22;18508;49.386;8.370;2022-08-21T08:17:59;21.90;10.00
31991;DHT22;18508;49.386;8.370;2022-08-21T08:20:28;21.90;11.00
31991;DHT22;18508;49.386;8.370;2022-08-21T08:22:57;22.10;19.70
31991;DHT22;18508;49.386;8.370;2022-08-21T08:25:27;22.10;8.00
31991;DHT22;18508;49.386;8.370;2022-08-21T08:28:02;22.30;5.80
31991;DHT22;18508;49.386;8.370;2022-08-21T08:30:45;22.30;6.50
31991;DHT22;18508;49.386;8.370;2022-08-21T08:33:14;22.10;16.40
31991;DHT22;18508;49.386;8.370;2022-08-21T08:35:48;22.50;4.50
31991;DHT22;18508;49.386;8.370;2022-08-21T08:38:17;22.60;5.10
31991;DHT22;18508;49.386;8.370;2022-08-21T08:40:55;22.60;1.40
31991;DHT22;18508;49.386;8.370;2022-08-21T08:43:30;22.20;13.30
31991;DHT22;18508;49.386;8.370;2022-08-21T08:46:04;22.50;1.70
31991;DHT22;18508;49.386;8.370;2022-08-21T08:48:45;22.60;2.10
31991;DHT22;18508;49.386;8.370;2022-08-21T08:51:22;22.60;14.30
31991;DHT22;18508;49.386;8.370;2022-08-21T08:53:57;22.90;4.00
31991;DHT22;18508;49.386;8.370;2022-08-21T08:56:29;23.10;1.00
31991;DHT22;18508;49.386;8.370;2022-08-21T08:59:02;23.20;1.00
31991;DHT22;18508;49.386;8.370;2022-08-21T09:01:32;23.40;1.00
31991;DHT22;18508;49.386;8.370;2022-08-21T09:04:05;23.50;1.00
31991;DHT22;18508;49.386;8.370;2022-08-21T09:06:45;23.60;1.00
31991;DHT22;18508;49.386;8.370;2022-08-21T09:09:25;23.50;1.00
31991;DHT22;18508;49.386;8.370;2022-08-21T09:12:02;23.50;1.00
31991;DHT22;18508;49.386;8.370;2022-08-21T09:14:44;23.80;6.70
31991;DHT22;18508;49.386;8.370;2022-08-21T09:17:31;23.80;1.00
31991;DHT22;18508;49.386;8.370;2022-08-21T09:20:12;24.10;1.00
31991;DHT22;18508;49.386;8.370;2022-08-21T09:22:58;24.20;1.00
31991;DHT22;18508;49.386;8.370;2022-08-21T09:25:33;24.20;1.00
31991;DHT22;18508;49.386;8.370;2022-08-21T09:28:07;24.40;1.00
31991;DHT22;18508;49.386;8.370;2022-08-21T09:30:40;24.40;1.00
31991;DHT22;18508;49.386;8.370;2022-08-21T09:33:13;24.50;1.00
31991;DHT22;18508;49.386;8.370;2022-08-21T09:35:51;24.50;1.00
31991;DHT22;18508;49.386;8.370;2022-08-21T09:38:34;25.00;1.00
31991;DHT22;18508;49.386;8.370;2022-08-21T09:41:07;24.90;1.00
31991;DHT22;18508;49.386;8.370;2022-08-21T09:43:54;24.70;1.00
31991;DHT22;18508;49.386;8.370;2022-08-21T09:46:38;25.10;1.00
31991;DHT22;18508;49.386;8.370;2022-08-21T09:49:26;24.90;1.00
31991;DHT22;18508;49.386;8.370;2022-08-21T09:52:01;25.30;1.00
31991;DHT22;18508;49.386;8.370;2022-08-21T09:54:38;25.00;1.00
31991;DHT22;18508;49.386;8.370;2022-08-21T09:57:14;24.90;1.00
31991;DHT22;18508;49.386;8.370;2022-08-21T10:00:07;25.20;1.00
31991;DHT22;18508;49.386;8.370;2022-08-21T10:02:36;25.40;1.00
31991;DHT22;18508;49.386;8.370;2022-08-21T10:05:16;25.30;1.00
31991;DHT22;18508;49.386;8.370;2022-08-21T10:07:45;25.50;1.00
31991;DHT22;18508;49.386;8.370;2022-08-21T10:10:16;25.40;1.00
31991;DHT22;18508;49.386;8.370;2022-08-21T10:12:52;25.60;1.00
31991;DHT22;18508;49.386;8.370;2022-08-21T10:15:31;25.80;1.00
31991;DHT22;18508;49.386;8.370;2022-08-21T10:18:09;25.80;1.00
31991;DHT22;18508;49.386;8.370;2022-08-21T10:20:44;26.30;1.00
31991;DHT22;18508;49.386;8.370;2022-08-21T10:23:28;26.70;1.00
31991;DHT22;18508;49.386;8.370;2022-08-21T10:26:02;25.90;1.00
31991;DHT22;18508;49.386;8.370;2022-08-21T10:28:44;26.00;1.00
31991;DHT22;18508;49.386;8.370;2022-08-21T10:31:21;26.00;1.00
31991;DHT22;18508;49.386;8.370;2022-08-21T10:34:04;26.00;1.00
31991;DHT22;18508;49.386;8.370;2022-08-21T10:37:00;26.00;1.00
31991;DHT22;18508;49.386;8.370;2022-08-21T10:39:42;26.00;1.00
31991;DHT22;18508;49.386;8.370;2022-08-21T10:42:23;26.30;1.00
31991;DHT22;18508;49.386;8.370;2022-08-21T10:45:11;26.00;1.00
31991;DHT22;18508;49.386;8.370;2022-08-21T10:47:47;26.40;1.00
31991;DHT22;18508;49.386;8.370;2022-08-21T10:50:29;26.10;1.00
31991;DHT22;18508;49.386;8.370;2022-08-21T10:53:22;25.80;1.00
31991;DHT22;18508;49.386;8.370;2022-08-21T10:55:59;26.90;1.00
31991;DHT22;18508;49.386;8.370;2022-08-21T10:58:30;26.60;1.00
31991;DHT22;18508;49.386;8.370;2022-08-21T11:01:05;26.70;1.00
31991;DHT22;18508;49.386;8.370;2022-08-21T11:03:39;26.90;1.00
31991;DHT22;18508;49.386;8.370;2022-08-21T11:06:13;27.10;1.00
31991;DHT22;18508;49.386;8.370;2022-08-21T11:08:46;27.00;1.00
31991;DHT22;18508;49.386;8.370;2022-08-21T11:11:24;27.00;1.00
31991;DHT22;18508;49.386;8.370;2022-08-21T11:14:04;26.30;1.00
31991;DHT22;18508;49.386;8.370;2022-08-21T11:16:39;27.10;1.00
31991;DHT22;18508;49.386;8.370;2022-08-21T11:19:15;26.70;1.00
31991;DHT22;18508;49.386;8.370;2022-08-21T11:21:49;26.60;1.00
31991;DHT22;18508;49.386;8.370;2022-08-21T11:24:30;27.00;1.00
31991;DHT22;18508;49.386;8.370;2022-08-21T11:27:05;27.40;1.00
31991;DHT22;18508;49.386;8.370;2022-08-21T11:29:37;27.40;1.00
31991;DHT22;18508;49.386;8.370;2022-08-21T11:32:40;27.40;1.00
31991;DHT22;18508;49.386;8.370;2022-08-21T11:35:23;27.30;1.00
31991;DHT22;18508;49.386;8.370;2022-08-21T11:41:18;27.80;1.00
31991;DHT22;18508;49.386;8.370;2022-08-21T11:43:59;27.10;1.00
31991;DHT22;18508;49.386;8.370;2022-08-21T11:46:36;26.90;1.00
31991;DHT22;18508;49.386;8.370;2022-08-21T11:49:36;27.00;1.00
31991;DHT22;18508;49.386;8.370;2022-08-21T11:52:15;27.20;1.00
31991;DHT22;18508;49.386;8.370;2022-08-21T11:54:48;27.30;1.00
31991;DHT22;18508;49.386;8.370;2022-08-21T11:57:21;27.60;1.00
31991;DHT22;18508;49.386;8.370;2022-08-21T11:59:54;27.40;1.00
31991;DHT22;18508;49.386;8.370;2022-08-21T12:02:30;27.80;1.00
31991;DHT22;18508;49.386;8.370;2022-08-21T12:05:02;27.90;1.00
31991;DHT22;18508;49.386;8.370;2022-08-21T12:07:39;27.80;1.00
31991;DHT22;18508;49.386;8.370;2022-08-21T12:10:11;28.20;1.00
31991;DHT22;18508;49.386;8.370;2022-08-21T12:15:17;28.00;1.00
31991;DHT22;18508;49.386;8.370;2022-08-21T12:17:55;28.10;1.00
31991;DHT22;18508;49.386;8.370;2022-08-21T12:20:26;28.10;1.00
31991;DHT22;18508;49.386;8.370;2022-08-21T12:23:04;28.20;1.00
31991;DHT22;18508;49.386;8.370;2022-08-21T12:25:44;28.40;1.00
31991;DHT22;18508;49.386;8.370;2022-08-21T12:28:21;28.70;1.00
31991;DHT22;18508;49.386;8.370;2022-08-21T12:33:32;29.30;1.00
31991;DHT22;18508;49.386;8.370;2022-08-21T12:36:06;28.80;1.00
31991;DHT22;18508;49.386;8.370;2022-08-21T12:38:39;28.80;1.00
31991;DHT22;18508;49.386;8.370;2022-08-21T12:41:14;28.90;1.00
31991;DHT22;18508;49.386;8.370;2022-08-21T12:43:47;29.30;1.00
31991;DHT22;18508;49.386;8.370;2022-08-21T12:46:17;29.00;1.00
31991;DHT22;18508;49.386;8.370;2022-08-21T12:48:50;29.00;1.00
31991;DHT22;18508;49.386;8.370;2022-08-21T12:51:30;29.20;1.00
31991;DHT22;18508;49.386;8.370;2022-08-21T12:54:02;29.70;1.00
31991;DHT22;18508;49.386;8.370;2022-08-21T12:59:12;29.50;1.00
31991;DHT22;18508;49.386;8.370;2022-08-21T13:01:47;29.80;1.00
31991;DHT22;18508;49.386;8.370;2022-08-21T13:04:18;29.90;1.00
31991;DHT22;18508;49.386;8.370;2022-08-21T13:06:53;29.60;1.00
31991;DHT22;18508;49.386;8.370;2022-08-21T13:09:27;30.30;1.00
31991;DHT22;18508;49.386;8.370;2022-08-21T13:11:59;30.00;1.00
31991;DHT22;18508;49.386;8.370;2022-08-21T13:14:38;30.10;1.00
31991;DHT22;18508;49.386;8.370;2022-08-21T13:17:15;29.70;1.00
31991;DHT22;18508;49.386;8.370;2022-08-21T13:19:56;32.30;1.00
31991;DHT22;18508;49.386;8.370;2022-08-21T13:22:27;31.20;1.00
31991;DHT22;18508;49.386;8.370;2022-08-21T13:25:01;31.00;1.00
31991;DHT22;18508;49.386;8.370;2022-08-21T13:27:45;31.00;1.00
31991;DHT22;18508;49.386;8.370;2022-08-21T13:33:06;30.90;1.00
31991;DHT22;18508;49.386;8.370;2022-08-21T13:35:52;30.80;99.90
31991;DHT22;18508;49.386;8.370;2022-08-21T13:38:35;31.20;99.90
31991;DHT22;18508;49.386;8.370;2022-08-21T13:41:16;31.30;99.90
31991;DHT22;18508;49.386;8.370;2022-08-21T13:43:56;31.00;1.00
31991;DHT22;18508;49.386;8.370;2022-08-21T13:46:29;31.10;99.90
31991;DHT22;18508;49.386;8.370;2022-08-21T13:48:59;31.10;99.90
31991;DHT22;18508;49.386;8.370;2022-08-21T13:51:29;31.50;99.90
31991;DHT22;18508;49.386;8.370;2022-08-21T13:56:32;31.50;99.90
31991;DHT22;18508;49.386;8.370;2022-08-21T13:59:03;32.30;99.90
31991;DHT22;18508;49.386;8.370;2022-08-21T14:01:36;32.70;99.90
31991;DHT22;18508;49.386;8.370;2022-08-21T14:04:14;32.70;99.90
31991;DHT22;18508;49.386;8.370;2022-08-21T14:06:48;33.90;99.90
31991;DHT22;18508;49.386;8.370;2022-08-21T14:09:21;33.80;99.90
31991;DHT22;18508;49.386;8.370;2022-08-21T14:12:15;33.50;99.90
31991;DHT22;18508;49.386;8.370;2022-08-21T14:14:50;33.30;99.90
31991;DHT22;18508;49.386;8.370;2022-08-21T14:17:29;33.80;99.90
31991;DHT22;18508;49.386;8.370;2022-08-21T14:22:45;34.40;99.90
31991;DHT22;18508;49.386;8.370;2022-08-21T14:25:36;34.90;99.90
31991;DHT22;18508;49.386;8.370;2022-08-21T14:28:23;34.80;99.90
31991;DHT22;18508;49.386;8.370;2022-08-21T14:31:10;34.90;99.90
31991;DHT22;18508;49.386;8.370;2022-08-21T14:33:53;34.80;99.90
31991;DHT22;18508;49.386;8.370;2022-08-21T14:36:49;35.10;99.90
31991;DHT22;18508;49.386;8.370;2022-08-21T14:55:08;35.70;99.90
31991;DHT22;18508;49.386;8.370;2022-08-21T14:57:42;35.60;99.90
31991;DHT22;18508;49.386;8.370;2022-08-21T15:00:14;34.80;99.90
31991;DHT22;18508;49.386;8.370;2022-08-21T15:02:43;34.80;99.90
31991;DHT22;18508;49.386;8.370;2022-08-21T15:05:13;34.80;99.90
31991;DHT22;18508;49.386;8.370;2022-08-21T15:12:51;35.30;99.90
31991;DHT22;18508;49.386;8.370;2022-08-21T15:15:20;36.10;99.90
31991;DHT22;18508;49.386;8.370;2022-08-21T15:17:49;36.20;99.90
31991;DHT22;18508;49.386;8.370;2022-08-21T15:20:23;36.00;99.90
31991;DHT22;18508;49.386;8.370;2022-08-21T15:23:08;35.70;99.90
31991;DHT22;18508;49.386;8.370;2022-08-21T15:25:41;36.40;99.90
31991;DHT22;18508;49.386;8.370;2022-08-21T15:28:17;36.30;99.90
31991;DHT22;18508;49.386;8.370;2022-08-21T15:30:50;36.00;99.90
31991;DHT22;18508;49.386;8.370;2022-08-21T15:33:25;36.00;99.90
31991;DHT22;18508;49.386;8.370;2022-08-21T15:36:01;36.00;99.90
31991;DHT22;18508;49.386;8.370;2022-08-21T15:38:29;36.10;99.90
31991;DHT22;18508;49.386;8.370;2022-08-21T15:40:57;36.20;99.90
31991;DHT22;18508;49.386;8.370;2022-08-21T15:43:29;35.90;99.90
31991;DHT22;18508;49.386;8.370;2022-08-21T15:46:05;35.80;99.90
31991;DHT22;18508;49.386;8.370;2022-08-21T15:51:06;34.70;99.90
31991;DHT22;18508;49.386;8.370;2022-08-21T15:53:44;35.20;99.90
31991;DHT22;18508;49.386;8.370;2022-08-21T15:56:33;35.00;99.90
31991;DHT22;18508;49.386;8.370;2022-08-21T15:59:07;35.50;99.90
31991;DHT22;18508;49.386;8.370;2022-08-21T16:04:13;35.20;99.90
31991;DHT22;18508;49.386;8.370;2022-08-21T16:06:47;34.80;99.90
31991;DHT22;18508;49.386;8.370;2022-08-21T16:09:33;35.60;99.90
31991;DHT22;18508;49.386;8.370;2022-08-21T16:12:16;34.90;99.90
31991;DHT22;18508;49.386;8.370;2022-08-21T16:15:22;34.60;99.90
31991;DHT22;18508;49.386;8.370;2022-08-21T16:18:19;34.80;99.90
31991;DHT22;18508;49.386;8.370;2022-08-21T16:33:26;34.40;95.00
31991;DHT22;18508;49.386;8.370;2022-08-21T16:41:34;33.00;70.30
31991;DHT22;18508;49.386;8.370;2022-08-21T17:03:29;30.20;43.50
31991;DHT22;18508;49.386;8.370;2022-08-21T17:06:09;29.80;36.30
31991;DHT22;18508;49.386;8.370;2022-08-21T17:11:40;29.30;53.70
31991;DHT22;18508;49.386;8.370;2022-08-21T17:16:57;29.00;44.90
31991;DHT22;18508;49.386;8.370;2022-08-21T17:27:23;28.60;56.80
31991;DHT22;18508;49.386;8.370;2022-08-21T17:32:51;28.10;99.20
31991;DHT22;18508;49.386;8.370;2022-08-21T17:46:39;27.50;99.90
31991;DHT22;18508;49.386;8.370;2022-08-21T18:02:30;26.80;99.90
31991;DHT22;18508;49.386;8.370;2022-08-21T18:05:12;26.60;99.90
31991;DHT22;18508;49.386;8.370;2022-08-21T18:13:07;26.30;99.90
31991;DHT22;18508;49.386;8.370;2022-08-21T18:21:23;25.40;99.90
31991;DHT22;18508;49.386;8.370;2022-08-21T18:24:09;25.80;99.90
31991;DHT22;18508;49.386;8.370;2022-08-21T18:26:44;25.70;99.90
31991;DHT22;18508;49.386;8.370;2022-08-21T18:29:19;25.50;99.90
31991;DHT22;18508;49.386;8.370;2022-08-21T18:34:30;25.30;99.90
31991;DHT22;18508;49.386;8.370;2022-08-21T18:37:07;25.20;99.90
31991;DHT22;18508;49.386;8.370;2022-08-21T18:39:41;24.90;99.90
31991;DHT22;18508;49.386;8.370;2022-08-21T18:42:15;25.30;99.90
31991;DHT22;18508;49.386;8.370;2022-08-21T18:44:48;25.20;99.90
31991;DHT22;18508;49.386;8.370;2022-08-21T18:47:31;24.40;99.90
31991;DHT22;18508;49.386;8.370;2022-08-21T18:50:10;24.50;99.90
31991;DHT22;18508;49.386;8.370;2022-08-21T18:52:43;23.50;99.90
31991;DHT22;18508;49.386;8.370;2022-08-21T18:55:33;24.30;99.90
31991;DHT22;18508;49.386;8.370;2022-08-21T18:58:11;24.30;99.90
31991;DHT22;18508;49.386;8.370;2022-08-21T19:00:48;24.10;99.90
31991;DHT22;18508;49.386;8.370;2022-08-21T19:03:21;24.00;99.90
31991;DHT22;18508;49.386;8.370;2022-08-21T19:05:53;23.80;99.90